Airport ICAO


22:35 UTC

10°C

Mist


An affordable passengers' Moving Map for your aircraft. Made for the iPad and the iPhone
More information here

LFLS Saint Geoirs


Grenoble FRANCE   IFR CAT I


METAR LFLS 132230Z AUTO 00000KT 4500 BR OVC005 10/10 Q1029 0h05min

TAF LFLS 131400Z 1315/1415 36005KT 9999 SCT054 OVC090 BECMG 1318/1320 VRB02KT CAVOK BECMG 1323/1402 4000 BR TEMPO 1405/1408 1500 BCFG OVC002 8h35min





NOTAMS

OPEN